This is the latest recevied weather packets stored in our database for station/object K5RWS. If no packets are shown the sender has not sent any weather packets the latest 10 day(s).
| Time | Temp. | Humidity | Pressure | Rain* | Wind** | Luminosity | Snow |
|---|---|---|---|---|---|---|---|
| 1777620887 | 9.44° C | 80% | 1016.7 hPa | 1.27 mm | - | 0 W/m² | - |
| 1777620584 | 9.44° C | 78% | 1017 hPa | 4.32 mm | - | 0 W/m² | - |
| 1777620280 | 9.44° C | 78% | 1016.7 hPa | 6.1 mm | - | 0 W/m² | - |
| 1777619977 | 9.44° C | 75% | 1016.4 hPa | 3.05 mm | - | 0 W/m² | - |
| 1777619673 | 11.11° C | 67% | 1016.3 hPa | 0 mm | - | 0 W/m² | - |
| 1777619367 | 11.67° C | 61% | 1016.2 hPa | 0 mm | - | 0 W/m² | - |
| 1777619061 | 11.67° C | 59% | 1016.2 hPa | 0 mm | - | 0 W/m² | - |
| 1777618756 | 12.22° C | 58% | 1016.2 hPa | 0 mm | - | 0 W/m² | - |
| 1777618452 | 12.22° C | 57% | 1016.1 hPa | 0 mm | - | 0 W/m² | - |
| 1777618148 | 12.22° C | 57% | 1016.1 hPa | 0 mm | - | 0 W/m² | - |
| 1777617845 | 12.22° C | 56% | 1016.1 hPa | 0 mm | - | 0 W/m² | - |
| 1777617539 | 12.78° C | 55% | 1016 hPa | 0 mm | - | 0 W/m² | - |
| 1777617237 | 12.78° C | 55% | 1016.1 hPa | 0 mm | - | 0 W/m² | - |
| 1777616934 | 12.78° C | 54% | 1016 hPa | 0 mm | - | 0 W/m² | - |
| 1777616629 | 13.33° C | 53% | 1016 hPa | 0 mm | - | 0 W/m² | - |
| 1777616324 | 13.33° C | 51% | 1016 hPa | 0 mm | - | 0 W/m² | - |
| 1777616021 | 13.89° C | 51% | 1016 hPa | 0 mm | - | 0 W/m² | - |
| 1777615718 | 13.89° C | 51% | 1016.1 hPa | 0 mm | - | 0 W/m² | - |
| 1777615415 | 13.89° C | 50% | 1015.7 hPa | 0 mm | - | 0 W/m² | - |
| 1777615114 | 13.89° C | 50% | 1015.7 hPa | 0 mm | - | 0 W/m² | - |
| 1777614810 | 13.89° C | 48% | 1015.7 hPa | 0 mm | - | 0 W/m² | - |
| 1777614507 | 14.44° C | 46% | 1015.6 hPa | 0 mm | - | 0 W/m² | - |
| 1777614201 | 13.89° C | 49% | 1015.6 hPa | 0 mm | - | 0 W/m² | - |
| 1777613897 | 13.89° C | 48% | 1015.4 hPa | 0 mm | - | 0 W/m² | - |
| 1777613594 | 13.89° C | 47% | 1015.3 hPa | 0 mm | - | 0 W/m² | - |
* Rain latest hour (hover to see other rain measurements)
** Current wind speed in m/s (hover to see current wind gust speed)